Time;durP1;ratioP1;P1;durP2;ratioP2;P2;SDS_P1;SDS_P2;PMS_P1;PMS_P2;Temp;Humidity;BMP_temperature;BMP_pressure;BME280_temperature;BME280_humidity;BME280_pressure;Samples;Min_cycle;Max_cycle;Signal;HPM_P1;HPM_P2
2022/10/11 00:01:51;;;;;;;20.40;9.50;;;;;;;15.83;58.33;98535.00;5299731;27;20061;-79
2022/10/11 00:04:18;;;;;;;20.30;9.70;;;;;;;16.28;56.59;98533.34;5299466;27;20065;-80
2022/10/11 00:06:46;;;;;;;20.75;9.88;;;;;;;15.95;57.43;98536.94;5299691;27;20343;-79
2022/10/11 00:09:14;;;;;;;18.48;8.80;;;;;;;16.62;54.31;98534.78;5299666;27;20053;-80
2022/10/11 00:11:41;;;;;;;20.05;10.45;;;;;;;16.23;55.61;98533.59;5299577;27;20106;-79
2022/10/11 00:14:08;;;;;;;19.75;10.30;;;;;;;16.57;54.17;98544.63;5299537;27;20060;-80
2022/10/11 00:16:39;;;;;;;19.60;9.48;;;;;;;16.35;54.46;98535.47;5279890;27;20049;-79
2022/10/11 00:19:06;;;;;;;18.83;9.30;;;;;;;16.38;54.21;98537.91;5299268;27;20057;-80
2022/10/11 00:21:33;;;;;;;19.67;9.68;;;;;;;16.74;52.53;98539.28;5299724;27;20056;-79
2022/10/11 00:24:00;;;;;;;18.20;8.18;;;;;;;15.98;54.76;98530.72;5299555;27;20057;-79
2022/10/11 00:26:27;;;;;;;17.95;9.38;;;;;;;15.98;55.40;98541.97;5299232;27;20059;-80
2022/10/11 00:28:54;;;;;;;20.85;9.20;;;;;;;15.62;56.89;98537.03;5299618;27;20061;-80
2022/10/11 00:31:21;;;;;;;16.02;7.35;;;;;;;16.16;55.33;98537.47;5280241;27;20122;-79
2022/10/11 00:33:48;;;;;;;14.43;6.55;;;;;;;16.11;55.54;98529.09;5299463;27;20045;-80
2022/10/11 00:36:16;;;;;;;14.25;5.47;;;;;;;15.90;56.27;98531.16;5279934;27;20049;-79
2022/10/11 00:38:43;;;;;;;14.00;5.53;;;;;;;15.72;57.03;98526.97;5299470;27;20058;-79
2022/10/11 00:41:11;;;;;;;14.20;5.50;;;;;;;16.47;54.13;98532.13;5299237;27;20054;-79
2022/10/11 00:43:38;;;;;;;13.00;5.75;;;;;;;16.37;53.90;98528.41;5299632;27;20045;-79
2022/10/11 00:46:17;;;;;;;12.88;5.18;;;;;;;15.48;57.40;98522.19;5299221;27;20050;-79
2022/10/11 00:48:59;;;;;;;12.25;5.28;;;;;;;16.29;55.72;98533.25;5299616;27;20061;-79
2022/10/11 00:51:40;;;;;;;11.95;5.35;;;;;;;15.91;57.24;98523.25;5280254;27;20110;-79
2022/10/11 00:54:11;;;;;;;13.50;5.30;;;;;;;15.65;58.51;98521.28;5279855;27;20056;-80
2022/10/11 00:56:39;;;;;;;12.35;5.75;;;;;;;15.98;57.78;98520.31;5280018;27;20056;-79
2022/10/11 00:59:12;;;;;;;11.35;5.45;;;;;;;16.00;56.47;98515.84;5280082;27;20425;-79
2022/10/11 01:01:38;;;;;;;11.70;5.47;;;;;;;15.92;56.28;98521.47;5280601;27;20061;-80
2022/10/11 01:04:05;;;;;;;14.48;5.40;;;;;;;15.28;58.39;98525.03;5280761;27;20067;-79
2022/10/11 01:06:33;;;;;;;12.13;5.00;;;;;;;15.75;57.94;98513.81;5300231;27;20049;-79
2022/10/11 01:09:00;;;;;;;11.15;5.00;;;;;;;16.40;54.98;98511.78;5280648;27;20069;-80
2022/10/11 01:11:28;;;;;;;11.82;5.35;;;;;;;16.66;54.76;98518.88;5280947;27;20064;-79
2022/10/11 01:14:01;;;;;;;12.00;5.65;;;;;;;16.65;54.43;98519.81;5280995;27;20063;-79
2022/10/11 01:16:34;;;;;;;11.18;5.20;;;;;;;16.74;54.33;98511.47;5299256;27;20434;-79
2022/10/11 01:19:17;;;;;;;14.45;5.57;;;;;;;16.58;54.67;98513.28;5300325;27;20061;-79
2022/10/11 01:21:49;;;;;;;12.93;5.50;;;;;;;15.93;56.06;98517.13;5280691;27;20062;-80
2022/10/11 01:24:50;;;;;;;14.55;5.65;;;;;;;16.02;56.42;98509.63;5280855;27;20053;-79
2022/10/11 01:27:33;;;;;;;13.75;5.50;;;;;;;15.99;57.23;98498.56;5280691;27;20400;-79
2022/10/11 01:30:21;;;;;;;13.93;6.30;;;;;;;16.41;56.36;98496.06;5280485;27;20075;-79
2022/10/11 01:33:22;;;;;;;12.25;5.85;;;;;;;16.31;57.92;98502.72;5300260;27;20128;-79
2022/10/11 01:36:04;;;;;;;13.82;6.12;;;;;;;15.52;60.67;98500.28;5299992;27;20080;-80
2022/10/11 01:38:41;;;;;;;12.32;5.75;;;;;;;16.14;58.13;98502.88;5300089;27;20050;-79
2022/10/11 01:41:15;;;;;;;13.20;5.70;;;;;;;16.17;57.81;98500.94;5300280;27;20056;-79
2022/10/11 01:43:43;;;;;;;12.82;5.80;;;;;;;16.43;56.48;98508.97;5280631;27;20376;-80
2022/10/11 01:46:10;;;;;;;14.10;6.07;;;;;;;15.65;58.05;98502.25;5280569;27;20110;-79
2022/10/11 01:48:57;;;;;;;14.60;5.90;;;;;;;15.88;57.42;98497.41;5280835;27;20521;-79
2022/10/11 01:51:29;;;;;;;14.85;5.72;;;;;;;15.78;57.67;98506.66;5300280;27;20089;-80
2022/10/11 01:54:32;;;;;;;12.90;6.45;;;;;;;15.69;58.03;98501.13;5280756;27;20065;-79
2022/10/11 01:57:40;;;;;;;12.65;5.22;;;;;;;16.58;55.05;98500.25;5299788;27;20053;-80
2022/10/11 02:00:16;;;;;;;11.70;5.55;;;;;;;16.13;56.73;98511.59;5300274;27;20056;-79
2022/10/11 02:03:09;;;;;;;11.98;5.43;;;;;;;16.02;57.90;98509.63;5280894;27;20065;-79
2022/10/11 02:05:42;;;;;;;14.98;5.47;;;;;;;15.82;58.67;98502.94;5280178;27;20064;-80
2022/10/11 02:08:41;;;;;;;11.75;4.97;;;;;;;15.19;60.85;98504.72;5300069;27;20049;-79
2022/10/11 02:11:21;;;;;;;15.43;5.75;;;;;;;15.53;60.69;98507.19;5299394;27;20045;-80
2022/10/11 02:14:03;;;;;;;13.32;6.25;;;;;;;15.46;61.21;98502.38;5280850;27;20061;-79
2022/10/11 02:16:36;;;;;;;13.98;5.85;;;;;;;15.88;60.62;98512.19;5280267;27;20060;-79
2022/10/11 02:19:05;;;;;;;13.75;6.30;;;;;;;15.49;61.98;98500.44;5280358;27;20063;-80
2022/10/11 02:21:33;;;;;;;12.40;5.82;;;;;;;15.78;61.85;98493.66;5280616;27;20335;-79
2022/10/11 02:24:08;;;;;;;13.57;6.22;;;;;;;16.68;58.79;98503.16;5280633;27;20066;-79
2022/10/11 02:26:38;;;;;;;16.27;6.03;;;;;;;16.31;60.18;98499.28;5280225;27;20071;-80
2022/10/11 02:29:07;;;;;;;12.50;5.85;;;;;;;16.93;58.15;98492.13;5280675;27;20060;-79
2022/10/11 02:31:34;;;;;;;13.40;5.95;;;;;;;16.86;57.81;98491.63;5280407;27;20045;-80
2022/10/11 02:34:13;;;;;;;14.27;6.28;;;;;;;16.82;58.04;98490.16;5300040;27;20062;-79
2022/10/11 02:36:46;;;;;;;12.48;5.72;;;;;;;15.85;61.20;98488.94;5280471;27;20057;-79
2022/10/11 02:39:28;;;;;;;17.52;6.68;;;;;;;16.08;61.41;98487.62;5299807;27;20053;-80
2022/10/11 02:41:57;;;;;;;18.42;6.68;;;;;;;16.40;60.83;98490.94;5300160;27;20064;-79
2022/10/11 02:44:44;;;;;;;15.10;6.15;;;;;;;16.31;60.50;98487.13;5280533;27;20079;-79
2022/10/11 02:47:12;;;;;;;12.73;6.32;;;;;;;16.59;59.42;98494.13;5280262;27;20061;-80
2022/10/11 02:49:39;;;;;;;13.62;6.15;;;;;;;17.51;55.27;98485.84;5280556;27;20053;-79
2022/10/11 02:52:05;;;;;;;14.77;6.03;;;;;;;16.81;56.57;98498.91;5299985;27;20056;-79
2022/10/11 02:54:33;;;;;;;12.82;6.03;;;;;;;16.58;57.52;98494.19;5299666;27;20069;-79
2022/10/11 02:56:59;;;;;;;13.70;6.78;;;;;;;17.43;54.07;98490.69;5299874;27;20057;-79
2022/10/11 02:59:26;;;;;;;13.85;6.35;;;;;;;17.16;55.04;98496.75;5299910;27;20045;-80
2022/10/11 03:01:53;;;;;;;15.63;6.70;;;;;;;16.39;57.06;98500.53;5280359;27;20049;-80
2022/10/11 03:04:20;;;;;;;16.48;7.22;;;;;;;16.70;56.80;98496.97;5299814;27;20415;-79
2022/10/11 03:06:47;;;;;;;15.65;6.72;;;;;;;17.13;54.92;98509.13;5299591;27;20069;-80
2022/10/11 03:09:14;;;;;;;14.23;6.65;;;;;;;17.08;54.09;98500.75;5299988;27;20060;-79
2022/10/11 03:11:41;;;;;;;18.23;7.32;;;;;;;16.90;54.79;98505.31;5299979;27;20050;-79
2022/10/11 03:14:08;;;;;;;15.70;7.70;;;;;;;15.77;58.36;98504.16;5299538;27;20391;-79
2022/10/11 03:16:36;;;;;;;23.02;9.63;;;;;;;16.01;59.01;98502.75;5299639;27;20118;-79
2022/10/11 03:19:03;;;;;;;26.08;9.95;;;;;;;16.05;58.39;98506.00;5299787;27;20059;-79
2022/10/11 03:21:30;;;;;;;26.12;8.55;;;;;;;16.12;58.49;98508.16;5299599;27;20056;-80
2022/10/11 03:23:57;;;;;;;27.67;9.88;;;;;;;16.35;57.82;98509.44;5299483;27;20072;-79
2022/10/11 03:26:24;;;;;;;18.37;8.60;;;;;;;15.78;60.11;98511.88;5299771;27;20376;-79
2022/10/11 03:28:50;;;;;;;17.92;8.63;;;;;;;15.32;60.75;98519.59;5299526;27;20067;-80
2022/10/11 03:31:18;;;;;;;22.75;9.30;;;;;;;15.67;60.50;98516.84;5299930;27;20411;-79
2022/10/11 03:33:45;;;;;;;17.12;6.57;;;;;;;15.94;59.73;98521.41;5299794;27;20381;-79
2022/10/11 03:36:12;;;;;;;23.27;7.85;;;;;;;16.57;57.16;98531.59;5299333;27;20060;-79
2022/10/11 03:38:39;;;;;;;15.45;7.20;;;;;;;16.68;55.05;98524.84;5299736;27;20395;-79
2022/10/11 03:41:06;;;;;;;18.80;8.32;;;;;;;16.00;56.39;98518.47;5299836;27;20060;-79
2022/10/11 03:43:33;;;;;;;20.45;8.85;;;;;;;16.75;54.43;98520.13;5299410;27;20057;-80
2022/10/11 03:46:00;;;;;;;20.70;9.65;;;;;;;16.45;55.59;98525.34;5299597;27;20155;-79
2022/10/11 03:48:27;;;;;;;29.77;12.25;;;;;;;16.20;56.76;98518.16;5299792;27;20102;-79
2022/10/11 03:50:54;;;;;;;27.80;10.35;;;;;;;15.89;58.00;98517.31;5280188;27;20049;-80
2022/10/11 03:53:21;;;;;;;22.10;10.05;;;;;;;16.83;55.62;98523.09;5299750;27;20076;-79
2022/10/11 03:55:52;;;;;;;23.80;8.40;;;;;;;16.66;55.93;98518.03;5299312;27;20061;-80
2022/10/11 03:58:19;;;;;;;16.10;6.95;;;;;;;16.96;54.44;98524.03;5299683;27;20045;-79
2022/10/11 04:00:46;;;;;;;17.75;7.90;;;;;;;16.78;54.50;98514.72;5280435;27;20046;-79
2022/10/11 04:03:13;;;;;;;22.85;9.23;;;;;;;15.89;57.35;98519.91;5299365;27;20057;-80
2022/10/11 04:05:40;;;;;;;24.92;9.77;;;;;;;16.05;58.21;98521.63;5299534;27;20154;-79
2022/10/11 04:08:07;;;;;;;16.70;6.95;;;;;;;16.19;58.02;98524.28;5299689;27;20407;-79
2022/10/11 04:10:38;;;;;;;12.25;5.53;;;;;;;16.03;58.69;98521.72;5299501;27;20045;-80
2022/10/11 04:13:06;;;;;;;17.52;5.57;;;;;;;16.34;56.47;98532.97;5280330;27;20076;-79
2022/10/11 04:15:33;;;;;;;14.90;5.30;;;;;;;15.61;59.12;98537.97;5299603;27;20057;-79
2022/10/11 04:18:00;;;;;;;16.52;5.87;;;;;;;15.03;60.78;98541.94;5299073;27;20049;-80
2022/10/11 04:20:26;;;;;;;16.27;6.10;;;;;;;15.67;59.95;98536.81;5299555;27;20041;-79
2022/10/11 04:22:53;;;;;;;14.32;6.43;;;;;;;15.48;60.68;98540.38;5299795;27;20095;-79
2022/10/11 04:25:20;;;;;;;17.33;7.30;;;;;;;15.44;60.90;98545.84;5299157;27;20072;-79
2022/10/11 04:27:47;;;;;;;13.62;6.18;;;;;;;16.00;59.26;98534.91;5299509;27;20049;-79
2022/10/11 04:30:15;;;;;;;15.77;5.72;;;;;;;15.81;59.41;98532.50;5299735;27;20049;-79
2022/10/11 04:32:42;;;;;;;13.05;6.53;;;;;;;15.67;60.24;98534.22;5279900;27;20399;-80
2022/10/11 04:35:09;;;;;;;15.63;6.90;;;;;;;15.91;59.63;98536.25;5298966;27;20072;-79
2022/10/11 04:37:36;;;;;;;55.38;9.95;;;;;;;15.25;62.42;98539.03;5299514;27;20319;-79
2022/10/11 04:40:05;;;;;;;19.87;7.32;;;;;;;15.26;63.15;98537.28;5279903;27;20121;-80
2022/10/11 04:42:33;;;;;;;19.70;7.45;;;;;;;16.04;61.34;98538.16;5299593;27;20057;-79
2022/10/11 04:45:00;;;;;;;16.08;8.10;;;;;;;16.48;60.25;98546.00;5279860;27;20084;-80
2022/10/11 04:47:27;;;;;;;15.27;7.80;;;;;;;15.92;62.31;98539.69;5299523;27;20056;-79
2022/10/11 04:49:53;;;;;;;18.75;8.18;;;;;;;16.77;60.44;98544.31;5299572;27;20046;-79
2022/10/11 04:52:20;;;;;;;17.58;6.87;;;;;;;15.99;63.02;98546.25;5299138;27;20049;-80
2022/10/11 04:54:51;;;;;;;15.13;7.62;;;;;;;16.32;61.80;98546.06;5299605;27;20408;-79
2022/10/11 04:57:18;;;;;;;14.52;6.62;;;;;;;16.11;62.23;98549.91;5299297;27;20437;-79
2022/10/11 04:59:45;;;;;;;15.82;7.35;;;;;;;16.82;59.66;98551.88;5299028;27;20106;-80
2022/10/11 05:02:16;;;;;;;17.87;7.30;;;;;;;16.59;60.33;98554.06;5280881;27;20092;-79
2022/10/11 05:04:43;;;;;;;15.50;6.85;;;;;;;17.32;57.19;98557.41;5299346;27;20396;-79
2022/10/11 05:07:10;;;;;;;14.30;7.10;;;;;;;17.82;55.09;98552.59;5299023;27;20459;-80
2022/10/11 05:09:36;;;;;;;15.05;7.22;;;;;;;17.05;56.87;98553.91;5299458;27;20388;-79
2022/10/11 05:12:04;;;;;;;14.80;6.70;;;;;;;17.08;57.32;98555.50;5299395;27;20073;-79
2022/10/11 05:14:30;;;;;;;14.55;7.07;;;;;;;17.26;57.36;98552.59;5299073;27;20067;-79
2022/10/11 05:16:57;;;;;;;19.25;7.90;;;;;;;17.08;57.61;98555.50;5298907;27;20429;-80
2022/10/11 05:19:24;;;;;;;18.12;8.73;;;;;;;16.40;61.59;98556.06;5299332;27;20042;-79
2022/10/11 05:21:51;;;;;;;21.20;9.32;;;;;;;16.61;61.70;98564.38;5299131;27;20114;-80
2022/10/11 05:24:18;;;;;;;22.20;8.68;;;;;;;16.76;62.13;98561.72;5299124;27;20076;-79
2022/10/11 05:26:45;;;;;;;23.25;10.32;;;;;;;17.39;60.13;98559.66;5299173;27;20053;-79
2022/10/11 05:29:12;;;;;;;17.77;8.73;;;;;;;17.52;60.04;98563.16;5299029;27;20045;-80
2022/10/11 05:31:39;;;;;;;18.02;8.82;;;;;;;17.51;60.25;98570.16;5299307;27;20407;-79
2022/10/11 05:34:05;;;;;;;19.08;9.25;;;;;;;17.77;59.76;98565.97;5298983;27;20053;-79
2022/10/11 05:36:32;;;;;;;22.17;9.48;;;;;;;18.21;59.13;98565.69;5279702;27;20053;-79
2022/10/11 05:38:59;;;;;;;18.35;9.15;;;;;;;18.17;58.79;98569.41;5299139;27;20114;-79
2022/10/11 05:41:28;;;;;;;20.62;8.52;;;;;;;18.11;59.13;98569.00;5298759;27;20073;-80
2022/10/11 05:43:54;;;;;;;22.30;10.43;;;;;;;18.14;60.31;98574.00;5279977;27;20430;-79
2022/10/11 05:46:21;;;;;;;15.82;8.55;;;;;;;18.30;59.85;98574.69;5299327;27;20429;-79
2022/10/11 05:48:48;;;;;;;18.05;10.07;;;;;;;18.66;58.68;98584.50;5280334;27;20053;-80
2022/10/11 05:51:15;;;;;;;18.12;8.20;;;;;;;19.19;57.44;98590.47;5300239;27;20076;-79
2022/10/11 05:53:42;;;;;;;19.12;8.02;;;;;;;20.64;52.45;98589.66;5300172;27;20061;-79
2022/10/11 05:56:20;;;;;;;21.40;8.20;;;;;;;21.05;50.50;98597.84;5299533;27;20052;-79
2022/10/11 05:58:47;;;;;;;25.37;7.40;;;;;;;21.04;49.50;98593.53;5280493;27;20665;-79
2022/10/11 06:01:21;;;;;;;22.40;8.70;;;;;;;20.93;49.26;98593.53;5300094;27;20062;-79
2022/10/11 06:03:49;;;;;;;15.85;7.03;;;;;;;20.44;50.41;98593.78;5299897;27;20109;-79
2022/10/11 06:06:16;;;;;;;15.15;6.70;;;;;;;20.61;50.77;98595.12;5299817;27;20392;-79
2022/10/11 06:08:43;;;;;;;21.00;7.62;;;;;;;20.79;50.37;98593.75;5300015;27;20057;-79
2022/10/11 06:11:15;;;;;;;18.98;7.62;;;;;;;20.21;51.43;98596.28;5299692;27;20058;-79
2022/10/11 06:13:43;;;;;;;16.92;6.95;;;;;;;19.69;53.15;98603.59;5300149;27;20324;-79
2022/10/11 06:16:11;;;;;;;16.98;6.95;;;;;;;20.60;50.88;98598.69;5299528;27;20053;-79
2022/10/11 06:18:38;;;;;;;15.98;6.87;;;;;;;20.85;50.25;98606.41;5276004;27;20045;-79
2022/10/11 06:21:05;;;;;;;17.73;6.85;;;;;;;21.15;49.48;98612.88;5277993;27;20062;-79
2022/10/11 06:23:32;;;;;;;14.07;6.60;;;;;;;21.41;49.58;98619.59;5277563;27;20057;-79
2022/10/11 06:26:04;;;;;;;13.85;6.60;;;;;;;21.70;49.11;98612.06;5278020;27;20052;-79
2022/10/11 06:28:33;;;;;;;15.88;7.45;;;;;;;22.17;48.48;98613.53;5278323;27;20072;-78
2022/10/11 06:31:02;;;;;;;20.10;8.43;;;;;;;22.99;47.10;98608.50;5277516;27;20053;-78
2022/10/11 06:33:29;;;;;;;25.73;11.60;;;;;;;23.84;45.64;98617.88;5278074;27;20072;-79
2022/10/11 06:36:00;;;;;;;16.62;8.55;;;;;;;24.35;44.28;98619.47;5277815;27;20064;-79
2022/10/11 06:38:28;;;;;;;20.77;9.23;;;;;;;24.65;43.95;98619.34;5277679;27;20400;-79
2022/10/11 06:40:55;;;;;;;18.75;8.55;;;;;;;25.50;42.16;98621.09;5278074;27;20084;-79
2022/10/11 06:43:21;;;;;;;18.55;8.90;;;;;;;26.37;40.85;98623.28;5278204;27;20054;-79
2022/10/11 06:45:48;;;;;;;15.23;7.80;;;;;;;27.07;38.94;98626.81;5277623;27;20324;-79
2022/10/11 06:48:15;;;;;;;18.55;8.38;;;;;;;27.67;38.99;98633.97;5278124;27;20053;-79
2022/10/11 06:50:42;;;;;;;19.48;9.52;;;;;;;27.98;37.22;98626.28;5277834;27;20321;-79
2022/10/11 06:53:28;;;;;;;17.23;8.90;;;;;;;28.52;36.26;98632.03;5277721;27;20061;-80
2022/10/11 06:56:10;;;;;;;20.08;10.70;;;;;;;29.03;35.33;98638.84;5277158;27;20077;-80
2022/10/11 06:58:38;;;;;;;16.60;8.43;;;;;;;29.31;35.44;98641.09;5276040;27;20419;-80
2022/10/11 07:01:08;;;;;;;17.20;9.05;;;;;;;29.78;34.43;98641.16;5277240;27;20061;-80
2022/10/11 07:03:35;;;;;;;15.88;8.43;;;;;;;29.84;34.51;98637.78;5277581;27;20054;-80
2022/10/11 07:06:11;;;;;;;14.93;7.70;;;;;;;29.50;34.91;98637.25;5276922;27;20785;-82
2022/10/11 07:08:38;;;;;;;17.75;7.22;;;;;;;29.22;35.29;98642.13;5276377;27;20068;-82
2022/10/11 07:11:08;;;;;;;16.80;7.78;;;;;;;29.18;35.52;98636.31;5277643;27;20062;-82
2022/10/11 07:13:37;;;;;;;15.07;7.93;;;;;;;29.25;35.17;98647.13;5276157;27;20061;-82
2022/10/11 07:16:06;;;;;;;14.60;7.62;;;;;;;29.46;35.28;98643.91;5277966;27;20057;-82
2022/10/11 07:18:34;;;;;;;16.45;7.60;;;;;;;29.73;35.08;98645.31;5298402;27;20082;-82
2022/10/11 07:21:06;;;;;;;14.18;7.50;;;;;;;30.30;34.16;98653.84;5299137;27;20062;-82
2022/10/11 07:23:33;;;;;;;11.88;7.22;;;;;;;30.61;33.93;98651.13;5299937;27;20293;-82
2022/10/11 07:26:00;;;;;;;12.93;7.00;;;;;;;30.60;33.89;98648.62;5299494;27;20067;-82
2022/10/11 07:28:29;;;;;;;16.20;7.80;;;;;;;28.97;36.25;98649.31;5299405;27;20061;-82
2022/10/11 07:30:56;;;;;;;13.23;7.37;;;;;;;28.97;36.68;98646.66;5299815;27;20422;-83
2022/10/11 07:33:24;;;;;;;14.70;7.72;;;;;;;27.63;39.21;98643.16;5299513;27;20404;-83
2022/10/11 07:35:55;;;;;;;14.05;7.70;;;;;;;28.00;38.56;98645.50;5299495;27;20057;-83
2022/10/11 07:38:22;;;;;;;15.05;8.00;;;;;;;26.06;42.36;98645.75;5299518;27;20063;-82
2022/10/11 07:40:49;;;;;;;15.30;8.02;;;;;;;24.11;46.65;98640.94;5299359;27;20118;-82
2022/10/11 07:43:16;;;;;;;13.15;7.32;;;;;;;24.28;46.27;98645.56;5299715;27;20075;-82
2022/10/11 07:45:46;;;;;;;12.90;7.70;;;;;;;23.42;48.45;98644.31;5299378;27;20053;-82
2022/10/11 07:48:13;;;;;;;14.45;7.32;;;;;;;25.06;44.60;98654.31;5298790;27;20415;-82
2022/10/11 07:50:50;;;;;;;16.15;8.75;;;;;;;23.84;47.76;98655.59;5298020;27;20080;-82
2022/10/11 07:53:26;;;;;;;15.02;8.15;;;;;;;24.14;47.54;98656.50;5298822;27;20112;-81
2022/10/11 07:55:53;;;;;;;17.12;8.52;;;;;;;22.62;51.20;98652.78;5296849;27;20071;-81
2022/10/11 07:58:20;;;;;;;17.35;8.20;;;;;;;22.44;51.52;98660.41;5298262;27;20061;-81
2022/10/11 08:00:52;;;;;;;17.02;8.50;;;;;;;22.13;52.98;98662.06;5298481;27;20091;-81
2022/10/11 08:03:19;;;;;;;13.13;7.78;;;;;;;22.02;53.28;98658.59;5280092;27;20446;-80
2022/10/11 08:05:46;;;;;;;15.98;7.97;;;;;;;22.21;52.51;98659.63;5298547;27;20080;-80
2022/10/11 08:08:13;;;;;;;17.77;8.18;;;;;;;22.92;50.49;98661.75;5298503;27;20053;-81
2022/10/11 08:10:40;;;;;;;21.50;8.77;;;;;;;23.04;50.54;98658.94;5299038;27;20053;-81
2022/10/11 08:13:07;;;;;;;17.23;8.57;;;;;;;23.44;49.27;98665.25;5299603;27;20053;-80
2022/10/11 08:15:34;;;;;;;14.80;8.55;;;;;;;24.61;46.09;98670.72;5299088;27;20052;-80
2022/10/11 08:18:00;;;;;;;17.40;8.10;;;;;;;24.01;46.64;98671.72;5299305;27;20056;-79
2022/10/11 08:20:29;;;;;;;15.13;8.50;;;;;;;22.00;52.92;98676.25;5280133;27;20061;-79
2022/10/11 08:22:56;;;;;;;17.62;8.45;;;;;;;22.76;50.58;98673.53;5299190;27;20070;-79
2022/10/11 08:25:23;;;;;;;20.05;8.80;;;;;;;23.71;48.08;98678.69;5299448;27;20071;-80
2022/10/11 08:27:50;;;;;;;15.77;8.35;;;;;;;23.09;49.41;98664.66;5299456;27;20049;-80
2022/10/11 08:30:17;;;;;;;17.10;8.18;;;;;;;22.95;49.91;98672.03;5299129;27;20057;-79
2022/10/11 08:32:44;;;;;;;17.25;8.27;;;;;;;23.03;49.14;98670.41;5299646;27;20072;-79
2022/10/11 08:35:11;;;;;;;14.57;8.45;;;;;;;22.23;51.32;98677.91;5299352;27;20053;-79
2022/10/11 08:37:38;;;;;;;17.58;8.52;;;;;;;22.56;50.91;98679.59;5299074;27;20052;-79
2022/10/11 08:40:05;;;;;;;18.50;8.40;;;;;;;24.51;45.82;98676.00;5299175;27;20057;-80
2022/10/11 08:42:42;;;;;;;16.30;8.55;;;;;;;25.27;44.34;98683.19;5299622;27;20058;-79
2022/10/11 08:45:20;;;;;;;16.70;9.10;;;;;;;25.45;43.69;98683.28;5279593;27;20069;-79
2022/10/11 08:47:47;;;;;;;16.70;8.82;;;;;;;26.06;42.18;98683.59;5280135;27;20054;-79
2022/10/11 08:50:20;;;;;;;21.73;11.35;;;;;;;24.16;46.44;98676.47;5280127;27;20355;-79
2022/10/11 08:53:01;;;;;;;24.23;12.02;;;;;;;26.35;41.97;98677.28;5279756;27;20064;-79
2022/10/11 08:55:44;;;;;;;19.35;10.27;;;;;;;26.09;42.83;98672.72;5279903;27;20418;-79
2022/10/11 08:58:14;;;;;;;21.48;11.52;;;;;;;25.26;44.51;98678.88;5298932;27;20354;-79
2022/10/11 09:00:41;;;;;;;24.55;13.70;;;;;;;24.63;46.70;98673.22;5299200;27;20515;-79
2022/10/11 09:03:25;;;;;;;21.62;11.98;;;;;;;24.07;48.77;98669.38;5280017;27;20057;-82
2022/10/11 09:06:04;;;;;;;22.65;11.65;;;;;;;24.81;46.43;98672.38;5298899;27;20094;-82
2022/10/11 09:08:52;;;;;;;23.08;11.95;;;;;;;26.04;43.63;98671.47;5299457;27;20045;-82
2022/10/11 09:11:38;;;;;;;22.17;12.25;;;;;;;24.55;47.46;98670.44;5280321;27;20121;-82
2022/10/11 09:14:08;;;;;;;20.45;11.63;;;;;;;24.27;48.07;98670.25;5299309;27;20103;-82
2022/10/11 09:16:38;;;;;;;22.33;12.00;;;;;;;24.22;49.21;98678.56;5299024;27;20056;-82
2022/10/11 09:19:16;;;;;;;22.62;13.27;;;;;;;23.80;50.26;98672.63;5299229;27;20399;-82
2022/10/11 09:22:02;;;;;;;24.60;13.48;;;;;;;22.52;52.77;98665.84;5280364;27;20092;-80
2022/10/11 09:24:38;;;;;;;22.17;12.23;;;;;;;23.79;49.44;98676.22;5300009;27;20061;-79
2022/10/11 09:27:17;;;;;;;22.33;12.45;;;;;;;23.64;49.88;98675.78;5299627;27;20064;-79
2022/10/11 09:30:02;;;;;;;19.33;11.73;;;;;;;23.03;50.65;98677.47;5300156;27;20312;-79
2022/10/11 09:32:36;;;;;;;22.73;12.85;;;;;;;23.47;50.24;98678.16;5300198;27;20073;-79
2022/10/11 09:35:13;;;;;;;26.75;13.40;;;;;;;23.66;49.96;98680.91;5300177;27;20064;-80
2022/10/11 09:38:01;;;;;;;22.40;12.13;;;;;;;25.05;46.48;98674.59;5300163;27;20057;-79
2022/10/11 09:40:39;;;;;;;21.00;11.18;;;;;;;26.05;43.53;98681.94;5280382;27;20053;-80
2022/10/11 09:43:08;;;;;;;25.17;11.55;;;;;;;24.87;46.66;98672.78;5300315;27;20061;-80
2022/10/11 09:45:35;;;;;;;23.42;11.70;;;;;;;25.63;44.83;98685.03;5299935;27;20060;-80
2022/10/11 09:48:04;;;;;;;22.77;11.02;;;;;;;25.37;45.34;98674.25;5299686;27;20063;-80
2022/10/11 09:50:32;;;;;;;18.65;11.35;;;;;;;25.64;44.27;98685.84;5280436;27;20045;-80
2022/10/11 09:53:03;;;;;;;18.62;10.30;;;;;;;25.80;43.28;98683.44;5280617;27;20062;-80
2022/10/11 09:55:45;;;;;;;18.25;10.57;;;;;;;26.39;42.17;98686.62;5299492;27;20068;-80
2022/10/11 09:58:33;;;;;;;21.23;10.52;;;;;;;27.67;39.34;98685.16;5300022;27;20053;-79
2022/10/11 10:01:03;;;;;;;17.73;9.68;;;;;;;28.43;37.94;98684.28;5280330;27;20049;-80
2022/10/11 10:03:41;;;;;;;19.37;9.55;;;;;;;28.15;38.16;98685.50;5300165;27;20373;-80
2022/10/11 10:06:15;;;;;;;17.45;9.68;;;;;;;27.81;38.50;98689.03;5281036;27;20052;-82
2022/10/11 10:08:45;;;;;;;16.25;9.05;;;;;;;25.34;43.49;98682.47;5300290;27;20060;-81
2022/10/11 10:11:13;;;;;;;18.23;10.55;;;;;;;26.18;42.19;98692.16;5300044;27;20060;-82
2022/10/11 10:13:48;;;;;;;16.85;10.20;;;;;;;25.45;43.56;98678.81;5280519;27;20118;-82
2022/10/11 10:16:27;;;;;;;19.55;9.98;;;;;;;26.83;40.36;98678.75;5299263;27;20075;-82
2022/10/11 10:19:00;;;;;;;16.83;10.48;;;;;;;28.17;37.60;98679.03;5254893;27;20050;-81
2022/10/11 10:21:34;;;;;;;19.25;10.20;;;;;;;26.36;41.54;98679.75;5255101;27;20060;-81
2022/10/11 10:24:08;;;;;;;20.73;11.20;;;;;;;25.59;43.46;98677.50;5256278;27;20069;-82
2022/10/11 10:26:35;;;;;;;20.17;11.20;;;;;;;25.09;43.87;98664.59;5255071;27;20062;-82
2022/10/11 10:29:08;;;;;;;18.90;10.70;;;;;;;25.18;44.90;98674.28;5256168;27;20050;-82
2022/10/11 10:31:52;;;;;;;17.87;11.63;;;;;;;25.41;43.90;98679.22;5256680;27;20056;-82
2022/10/11 10:35:02;;;;;;;21.90;12.55;;;;;;;25.80;43.14;98678.16;5255305;27;20116;-82
2022/10/11 10:37:42;;;;;;;17.92;10.02;;;;;;;26.80;41.46;98685.19;5249125;27;20090;-82
2022/10/11 10:40:27;;;;;;;18.60;11.15;;;;;;;26.16;43.29;98684.38;5256605;27;20056;-81
2022/10/11 10:42:53;;;;;;;21.62;11.95;;;;;;;25.45;44.61;98686.75;5254931;27;20056;-82
2022/10/11 10:45:24;;;;;;;22.40;10.52;;;;;;;26.07;42.92;98687.91;5256113;27;20066;-83
2022/10/11 10:48:26;;;;;;;18.60;11.30;;;;;;;24.93;45.14;98680.16;5256358;27;20077;-83
2022/10/11 10:51:26;;;;;;;19.92;11.12;;;;;;;26.17;42.48;98693.97;5237011;27;20057;-83
2022/10/11 10:53:58;;;;;;;19.80;11.00;;;;;;;27.74;39.24;98685.34;5241215;27;20099;-83
2022/10/11 10:56:58;;;;;;;20.15;11.55;;;;;;;25.78;42.94;98684.56;5256401;27;20062;-83
2022/10/11 10:59:46;;;;;;;17.65;9.90;;;;;;;24.85;44.88;98675.56;5254895;27;20070;-82
2022/10/11 11:02:20;;;;;;;20.67;11.07;;;;;;;26.76;41.27;98681.16;5256487;27;20061;-82
2022/10/11 11:05:20;;;;;;;17.15;10.95;;;;;;;26.51;41.87;98674.81;5255872;27;20056;-82
2022/10/11 11:08:23;;;;;;;16.90;10.10;;;;;;;25.51;43.10;98675.59;5254988;27;20457;-82
2022/10/11 11:10:56;;;;;;;16.70;10.02;;;;;;;25.99;42.28;98677.22;5241017;27;20057;-82
2022/10/11 11:13:44;;;;;;;22.80;11.12;;;;;;;27.12;39.88;98674.03;5255000;27;20328;-82
2022/10/11 11:16:19;;;;;;;16.55;9.85;;;;;;;28.88;36.61;98676.84;5256016;27;20046;-82
2022/10/11 11:18:59;;;;;;;16.40;9.38;;;;;;;26.21;41.60;98675.97;5276374;27;20062;-82
2022/10/11 11:21:42;;;;;;;20.35;9.80;;;;;;;27.00;39.67;98669.91;5276610;27;20064;-82
2022/10/11 11:24:47;;;;;;;15.20;8.80;;;;;;;25.61;43.08;98665.81;5278203;27;20130;-83
2022/10/11 11:27:27;;;;;;;17.70;10.43;;;;;;;25.67;43.03;98669.69;5252175;27;20697;-83
2022/10/11 11:30:16;;;;;;;15.10;9.30;;;;;;;25.05;44.09;98665.84;5276642;27;20062;-82
2022/10/11 11:33:01;;;;;;;16.27;9.60;;;;;;;26.17;42.84;98670.16;5276241;27;20446;-83
2022/10/11 11:35:34;;;;;;;19.08;9.82;;;;;;;25.91;42.33;98667.37;5277668;27;20054;-82
2022/10/11 11:38:15;;;;;;;18.85;10.30;;;;;;;27.13;40.21;98665.09;5276280;27;20420;-82
2022/10/11 11:40:44;;;;;;;18.30;9.35;;;;;;;27.07;39.82;98663.91;5277395;27;20062;-82
2022/10/11 11:43:26;;;;;;;15.45;9.50;;;;;;;26.97;40.66;98664.94;5277919;27;20118;-82
2022/10/11 11:45:57;;;;;;;21.40;9.93;;;;;;;26.34;41.75;98665.03;5277187;27;20053;-81
2022/10/11 11:48:25;;;;;;;15.82;9.73;;;;;;;26.86;40.78;98657.25;5276361;27;20045;-81